Latest Weather Observations for Swan Hill

IDV60801

Issued at 5:02 pm EST Saturday 23 May 2015 (issued every 30 minutes, with the page automatically refreshed every 10 minutes)

About weather observations | Map of weather stations | Latest weather observations for VIC | Other Formats
Station Details ID: 077094 Name: SWAN HILL AERODROME Lat: -35.38 Lon: 143.54 Height: 71.0 m
Data from the previous 72 hours. | See also: Recent months at Swan Hill
Date/Time
EST
Temp
°C
App
Temp
°C
Dew
Point
Rel
Hum
%
Delta-T
°C
Wind Press
QNH
hPa
Press
MSL
hPa
Rain
since 9 am
mm
Dir
 
Spd
km/h
Gust
km/h
Spd
kts
Gust
kts
23/05:00pm 14.4 13.3 5.2 54 4.3 CALM 0 0 0 0 1029.6 1029.7 0.0
23/04:30pm 15.4 14.3 5.0 50 4.9 CALM 0 0 0 0 1029.6 1029.7 0.0
23/04:00pm 15.4 13.1 5.0 50 4.9 ESE 6 9 3 5 1029.6 1029.7 0.0
23/03:30pm 15.4 12.9 4.5 48 5.1 ESE 7 11 4 6 1029.5 1029.6 0.0
23/03:00pm 15.5 13.1 5.1 50 4.9 ESE 7 13 4 7 1029.5 1029.6 0.0
23/02:30pm 15.5 13.2 4.8 49 5.0 ESE 6 9 3 5 1029.6 1029.7 0.0
23/02:00pm 15.1 12.7 5.3 52 4.6 E 7 13 4 7 1030.0 1030.1 0.0
23/01:30pm 14.6 12.2 5.4 54 4.4 SE 7 9 4 5 1030.3 1030.4 0.0
23/01:00pm 14.1 12.0 5.7 57 4.0 S 6 11 3 6 1030.5 1030.6 0.0
23/12:30pm 12.9 10.8 5.6 61 3.4 SE 6 11 3 6 1030.9 1031.0 0.0
23/12:00pm 12.2 9.9 5.6 64 3.1 SE 7 11 4 6 1031.4 1031.5 0.0
23/11:30am 11.1 7.9 5.0 66 2.8 ESE 11 17 6 9 1031.9 1032.0 0.0
23/11:00am 11.1 7.6 5.4 68 2.6 SE 13 20 7 11 1031.9 1032.0 0.0
23/10:30am 10.3 6.3 5.1 70 2.4 SE 15 20 8 11 1032.0 1032.1 0.0
23/10:00am 9.5 5.1 4.9 73 2.0 SE 17 24 9 13 1032.1 1032.2 0.0
23/09:30am 8.5 4.5 4.9 78 1.6 SSE 15 22 8 12 1032.1 1032.2 0.0
23/09:00am 7.1 3.3 4.1 81 1.3 SSE 13 19 7 10 1032.2 1032.3 0.0
23/08:30am 5.7 2.6 3.5 86 0.9 S 9 13 5 7 1032.1 1032.2 0.0
23/08:00am 3.5 0.7 2.2 91 0.5 SSW 6 9 3 5 1031.9 1032.0 0.0
23/07:30am 3.0 0.0 1.8 92 0.5 S 7 9 4 5 1031.5 1031.6 0.0
23/07:00am 2.9 -0.2 1.6 91 0.5 S 7 11 4 6 1031.1 1031.2 0.0
23/06:30am 3.4 0.4 1.8 89 0.6 S 7 9 4 5 1031.0 1031.1 0.0
23/06:00am 3.8 0.8 2.2 89 0.6 SSW 7 9 4 5 1030.7 1030.8 0.0
23/05:30am 4.0 0.3 2.4 89 0.6 S 11 13 6 7 1030.2 1030.3 0.0
23/05:00am 3.8 0.1 2.3 90 0.6 S 11 15 6 8 1030.1 1030.2 0.0
23/04:30am 3.9 0.5 2.1 88 0.7 SSE 9 11 5 6 1030.1 1030.2 0.0
23/04:00am 4.5 1.2 2.5 87 0.8 S 9 13 5 7 1030.2 1030.3 0.0
23/03:30am 5.0 1.8 2.9 86 0.9 S 9 13 5 7 1030.2 1030.3 0.0
23/03:00am 5.1 1.5 3.0 86 0.9 S 11 17 6 9 1030.3 1030.4 0.0
23/02:30am 5.0 1.8 3.0 87 0.8 SSW 9 11 5 6 1030.5 1030.6 0.0
23/02:00am 5.2 2.0 3.2 87 0.8 S 9 13 5 7 1030.6 1030.7 0.0
23/01:30am 5.0 2.2 3.0 87 0.8 S 7 11 4 6 1030.7 1030.8 0.0
23/01:00am 5.2 2.1 3.4 88 0.7 S 9 13 5 7 1030.6 1030.7 0.0
23/12:30am 5.4 2.8 3.4 87 0.8 S 6 11 3 6 1030.6 1030.7 0.0
23/12:00am 5.8 2.7 3.6 86 0.9 SSE 9 13 5 7 1030.6 1030.7 0.0
 
Date/Time
EST
Temp
°C
App
Temp
°C
Dew
Point
Rel
Hum
%
Delta-T
°C
Wind Press
QNH
hPa
Press
MSL
hPa
Rain
since 9 am
mm
Dir
 
Spd
km/h
Gust
km/h
Spd
kts
Gust
kts
22/11:30pm 6.6 3.6 4.1 84 1.1 SSE 9 13 5 7 1030.7 1030.8 0.0
22/11:00pm 6.8 3.8 4.3 84 1.1 SSE 9 13 5 7 1030.5 1030.6 0.0
22/10:30pm 7.4 5.0 4.5 82 1.3 SSE 6 9 3 5 1030.5 1030.6 0.0
22/10:00pm 8.0 4.8 4.9 81 1.4 SSE 11 15 6 8 1030.5 1030.6 0.0
22/09:30pm 8.4 4.9 5.3 81 1.4 S 13 17 7 9 1030.3 1030.4 0.0
22/09:00pm 8.8 5.7 5.4 79 1.5 S 11 15 6 8 1030.2 1030.3 0.0
22/08:30pm 9.5 6.4 5.7 77 1.7 S 11 15 6 8 1029.9 1030.0 0.0
22/08:00pm 10.2 7.2 6.0 75 1.9 SSW 11 15 6 8 1029.5 1029.6 0.0
22/07:30pm 11.2 7.8 6.1 71 2.4 S 13 19 7 10 1029.2 1029.3 0.0
22/07:00pm 11.6 8.7 6.3 70 2.5 S 11 15 6 8 1029.1 1029.2 0.0
22/06:30pm 12.4 9.7 5.6 63 3.2 SSW 9 13 5 7 1028.9 1029.0 0.0
22/06:00pm 13.5 10.4 5.7 59 3.7 S 11 15 6 8 1028.3 1028.4 0.0
22/05:30pm 14.6 11.4 4.9 52 4.5 SSE 11 15 6 8 1028.0 1028.1 0.0
22/05:00pm 16.1 12.1 4.8 47 5.3 SSE 15 22 8 12 1027.8 1027.9 0.0
22/04:30pm 16.8 12.4 4.8 45 5.7 SSE 17 24 9 13 1027.6 1027.7 0.0
22/04:00pm 17.0 12.5 4.3 43 6.0 S 17 24 9 13 1027.5 1027.6 0.0
22/03:30pm 17.0 12.6 5.0 45 5.7 S 17 26 9 14 1027.4 1027.5 0.0
22/03:00pm 17.0 12.6 5.0 45 5.7 S 17 24 9 13 1027.3 1027.4 0.0
22/02:30pm 16.8 12.0 4.5 44 5.8 SSE 19 32 10 17 1027.0 1027.1 0.0
22/02:00pm 16.8 12.1 5.1 46 5.6 SSE 19 28 10 15 1027.0 1027.1 0.0
22/01:30pm 16.6 11.4 5.3 47 5.4 SSE 22 33 12 18 1027.0 1027.1 0.0
22/01:00pm 16.2 11.3 4.9 47 5.3 SSE 20 30 11 16 1027.2 1027.3 0.0
22/12:30pm 16.0 10.8 5.6 50 5.0 SSE 22 32 12 17 1027.3 1027.4 0.0
22/12:00pm 15.4 10.2 5.6 52 4.7 SSE 22 35 12 19 1027.5 1027.6 0.0
22/11:30am 15.1 9.2 5.6 53 4.5 SSE 26 35 14 19 1027.8 1027.9 0.0
22/11:00am 14.9 9.0 6.0 55 4.3 SSE 26 41 14 22 1027.9 1028.0 0.0
22/10:30am 14.1 7.9 6.0 58 3.9 SSE 28 46 15 25 1027.8 1027.9 0.0
22/10:28am 14.0 7.8 6.1 59 3.8 SSE 28 46 15 25 1027.8 1027.9 0.0
22/10:00am 13.0 8.2 7.5 69 2.7 SSE 22 35 12 19 1027.7 1027.8 0.0
22/09:30am 12.0 6.8 7.1 72 2.4 SSE 24 37 13 20 1027.5 1027.6 0.0
22/09:00am 11.4 7.2 7.5 77 1.9 S 19 30 10 16 1027.3 1027.4 0.0
22/08:30am 10.2 5.9 7.1 81 1.5 S 19 28 10 15 1027.0 1027.1 -
22/08:00am 9.1 5.5 6.7 85 1.1 S 15 22 8 12 1026.6 1026.6 -
22/07:30am 7.9 4.9 6.2 89 0.8 S 11 15 6 8 1026.2 1026.2 -
22/07:00am 8.1 5.1 6.2 88 0.9 S 11 15 6 8 1025.8 1025.8 -
22/06:30am 8.6 5.0 6.6 87 0.9 S 15 19 8 10 1025.4 1025.4 -
22/06:00am 8.4 5.2 6.9 90 0.7 S 13 19 7 10 1025.2 1025.2 -
22/05:30am 7.9 5.0 6.4 90 0.7 S 11 17 6 9 1025.0 1025.0 -
22/05:00am 8.1 4.8 6.6 90 0.7 SSW 13 20 7 11 1024.9 1024.9 -
22/04:30am 8.2 4.9 6.5 89 0.8 SSW 13 19 7 10 1024.7 1024.7 -
22/04:00am 8.2 4.2 6.5 89 0.8 SSW 17 24 9 13 1024.6 1024.6 -
22/03:30am 8.4 4.4 6.7 89 0.8 SSW 17 28 9 15 1024.6 1024.6 -
22/03:00am 8.3 4.2 6.4 88 0.9 SSW 17 22 9 12 1024.6 1024.6 0.0
22/02:30am 8.1 4.8 6.4 89 0.8 SSW 13 20 7 11 1024.7 1024.7 -
22/02:00am 8.0 4.7 6.5 90 0.7 SW 13 17 7 9 1024.6 1024.6 -
22/01:30am 8.1 4.5 6.6 90 0.7 SW 15 19 8 10 1024.6 1024.6 -
22/01:00am 8.4 4.7 6.4 87 0.9 SW 15 20 8 11 1024.7 1024.7 -
22/12:30am 8.7 5.4 6.5 86 1.0 SSW 13 19 7 10 1024.7 1024.7 -
22/12:00am 9.1 5.5 6.7 85 1.1 SW 15 20 8 11 1024.5 1024.5 -
 
Date/Time
EST
Temp
°C
App
Temp
°C
Dew
Point
Rel
Hum
%
Delta-T
°C
Wind Press
QNH
hPa
Press
MSL
hPa
Rain
since 9 am
mm
Dir
 
Spd
km/h
Gust
km/h
Spd
kts
Gust
kts
21/11:30pm 9.3 5.7 6.7 84 1.2 SW 15 20 8 11 1024.5 1024.5 -
21/11:00pm 9.6 6.3 6.5 81 1.4 SW 13 17 7 9 1024.5 1024.5 -
21/10:30pm 10.1 6.8 6.6 79 1.6 SSW 13 17 7 9 1024.5 1024.5 -
21/10:00pm 10.5 7.3 6.8 78 1.7 SSW 13 17 7 9 1024.5 1024.5 -
21/09:30pm 10.3 7.4 6.6 78 1.7 SW 11 17 6 9 1024.5 1024.5 -
21/09:00pm 11.1 7.5 6.6 74 2.1 SSW 15 20 8 11 1024.4 1024.4 0.0
21/08:30pm 11.1 7.1 6.6 74 2.1 SSW 17 22 9 12 1024.1 1024.1 -
21/08:00pm 11.7 7.7 6.8 72 2.3 SSW 17 22 9 12 1024.2 1024.2 -
21/07:30pm 11.3 7.8 7.0 75 2.1 SSW 15 20 8 11 1024.1 1024.1 -
21/07:00pm 11.0 7.8 6.7 75 2.0 SW 13 17 7 9 1023.9 1023.9 -
21/06:30pm 11.3 7.6 6.4 72 2.3 SSW 15 20 8 11 1023.7 1023.7 -
21/06:00pm 11.9 8.6 6.2 68 2.7 SSW 13 20 7 11 1023.5 1023.5 -
21/05:30pm 13.0 9.4 6.6 65 3.1 SSW 15 22 8 12 1023.1 1023.1 -
21/05:00pm 13.8 9.7 6.2 60 3.6 SSW 17 28 9 15 1022.8 1022.8 -
21/04:30pm 13.8 8.7 6.2 60 3.6 SSW 22 30 12 16 1022.6 1022.6 -
21/04:00pm 14.5 10.1 6.6 59 3.8 SW 19 24 10 13 1022.4 1022.4 -
21/03:30pm 14.3 9.9 6.6 60 3.7 SSW 19 30 10 16 1022.3 1022.3 -
21/03:00pm 14.6 10.6 6.7 59 3.8 S 17 30 9 16 1022.1 1022.1 0.0
21/02:30pm 14.5 10.0 6.3 58 4.0 S 19 32 10 17 1022.0 1022.0 -
21/02:00pm 14.2 10.2 6.6 60 3.7 SSW 17 26 9 14 1022.1 1022.1 -
21/01:30pm 14.4 10.5 7.2 62 3.5 S 17 24 9 13 1022.4 1022.4 -
21/01:00pm 13.3 9.3 6.6 64 3.2 S 17 24 9 13 1022.7 1022.7 -
21/12:30pm 13.0 8.7 6.8 66 3.0 S 19 28 10 15 1023.1 1023.1 -
21/12:00pm 12.8 8.9 7.0 68 2.8 S 17 28 9 15 1023.4 1023.4 -
21/11:30am 12.4 8.1 7.1 70 2.6 S 19 28 10 15 1023.6 1023.6 0.0
21/11:00am 11.8 7.2 6.7 71 2.4 S 20 32 11 17 1023.7 1023.7 0.0
21/10:30am 11.4 7.1 6.9 74 2.1 S 19 30 10 16 1023.6 1023.6 0.0
21/10:00am 11.3 6.8 7.0 75 2.0 S 20 32 11 17 1023.5 1023.5 0.0
21/09:30am 11.0 6.5 7.1 77 1.9 S 20 32 11 17 1023.1 1023.1 0.0
21/09:00am 10.2 5.9 7.1 81 1.5 S 19 30 10 16 1022.8 1022.8 1.2
21/08:30am 8.9 5.3 6.7 86 1.0 S 15 28 8 15 1022.5 1022.5 1.2
21/08:00am 8.1 4.4 6.2 88 0.9 SSW 15 24 8 13 1022.2 1022.2 1.2
21/07:30am 7.6 4.2 5.9 89 0.8 SSW 13 19 7 10 1022.0 1022.0 1.2
21/07:00am 7.6 4.2 5.9 89 0.8 SSW 13 20 7 11 1021.8 1021.8 1.2
21/06:30am 7.3 3.9 5.8 90 0.7 SSW 13 17 7 9 1021.4 1021.4 1.2
21/06:00am 7.3 3.9 5.9 91 0.6 SSW 13 20 7 11 1021.3 1021.3 1.2
21/05:30am 7.3 4.3 5.8 90 0.7 SSW 11 17 6 9 1020.9 1020.9 1.2
21/05:00am 7.6 5.0 6.1 90 0.7 SSW 9 13 5 7 1020.8 1020.8 1.2
21/04:30am 7.7 4.7 6.2 90 0.7 SSW 11 17 6 9 1020.8 1020.8 1.2
21/04:00am 7.5 4.1 6.1 91 0.6 SSW 13 19 7 10 1020.7 1020.7 1.2
21/03:30am 7.3 3.9 5.9 91 0.6 SSW 13 20 7 11 1020.8 1020.8 1.2
21/03:00am 7.6 4.6 6.1 90 0.7 SSW 11 17 6 9 1020.7 1020.7 1.0
21/02:30am 7.8 4.4 6.1 89 0.8 SSW 13 20 7 11 1020.5 1020.5 1.0
21/02:00am 8.0 4.7 6.3 89 0.8 SSW 13 19 7 10 1020.3 1020.3 1.0
21/01:30am 8.2 4.9 6.3 88 0.9 SSW 13 19 7 10 1020.2 1020.2 1.0
21/01:00am 8.5 4.9 6.6 88 0.9 SSW 15 20 8 11 1020.1 1020.1 1.0
21/12:30am 8.8 5.6 6.9 88 0.9 SSW 13 20 7 11 1020.2 1020.2 1.0
21/12:00am 9.0 5.9 7.1 88 0.9 SSW 13 19 7 10 1020.2 1020.2 1.0
 
Date/Time
EST
Temp
°C
App
Temp
°C
Dew
Point
Rel
Hum
%
Delta-T
°C
Wind Press
QNH
hPa
Press
MSL
hPa
Rain
since 9 am
mm
Dir
 
Spd
km/h
Gust
km/h
Spd
kts
Gust
kts
20/11:30pm 9.4 6.3 7.3 87 1.0 SSW 13 20 7 11 1020.0 1020.0 1.0
20/11:00pm 9.7 6.3 7.6 87 1.0 SSW 15 20 8 11 1019.9 1019.9 1.0
20/10:30pm 10.2 6.9 8.1 87 1.0 SSW 15 19 8 10 1019.9 1019.9 1.0
20/10:00pm 10.8 8.0 8.4 85 1.2 SSW 13 20 7 11 1019.7 1019.7 1.0
20/09:30pm 11.6 9.0 9.3 86 1.2 SW 13 20 7 11 1019.4 1019.4 1.0
20/09:00pm 12.2 9.0 10.1 87 1.1 SW 17 22 9 12 1019.2 1019.2 1.0
20/08:30pm 12.0 9.8 10.7 92 0.7 WSW 13 17 7 9 1018.9 1018.9 1.0
20/08:00pm 12.4 11.0 10.8 90 0.8 SW 9 11 5 6 1018.5 1018.5 1.0
20/07:30pm 12.4 11.3 10.5 88 1.0 SSW 7 11 4 6 1018.4 1018.4 1.0
20/07:00pm 12.4 10.1 10.3 87 1.1 SSW 13 20 7 11 1018.0 1018.1 1.0
20/06:42pm 12.6 8.9 10.1 85 1.3 SSW 20 33 11 18 1017.8 1017.9 1.0
20/06:30pm 13.2 8.6 10.9 86 1.2 WSW 26 37 14 20 1017.4 1017.5 1.0
20/06:28pm 13.2 8.1 10.7 85 1.3 WSW 28 37 15 20 1017.3 1017.4 1.0
20/06:00pm 13.3 10.0 11.5 89 1.0 W 20 26 11 14 1016.8 1016.9 1.0
20/05:30pm 13.5 9.7 11.2 86 1.2 WNW 22 30 12 16 1016.3 1016.4 0.2

Other Formats:

Comma delimited format used in spreadsheet applications
http://www.bom.gov.au/fwo/IDV60801/IDV60801.94843.axf

JavaScript Object Notation format (JSON) in row-major order
http://www.bom.gov.au/fwo/IDV60801/IDV60801.94843.json